New Century, Kansas
Current Conditions -  °F | °C
As of 4:08 PM on Sunday 21 Dec 2014 (Local Time) from KIXD Reporting Station
Overcast Overcast  
Wind Chill: 37°   Ceiling: 900
Heat Index: 43°   Visibility: 8mi
Dew Point: 41°   Wind: 12mph
Humidity: 93%   Direction: 170°S
Pressure: 29.84"   Gusts: NA
Location:  38.81°N, 94.93°W
Report Text: KIXD 212208Z 17010KT 8SM OVC009 06/05 A2984 RMK AO2 CIG 008V013 T00610050
Loading
Personal Weather Stations






























Interactive Weather Map New forecast layout! Learn more

10-Day Weather Forecast

Advertisements
Track Severe Weather on mobile